sensor_id;sensor_type;location;lat;lon;timestamp;temperature;humidity
21992;DHT22;11160;51.576;0.194;2022-07-10T00:02:06;22.80;66.50
21992;DHT22;11160;51.576;0.194;2022-07-10T00:04:33;22.80;66.40
21992;DHT22;11160;51.576;0.194;2022-07-10T00:07:00;22.80;66.40
21992;DHT22;11160;51.576;0.194;2022-07-10T00:09:29;22.80;66.40
21992;DHT22;11160;51.576;0.194;2022-07-10T00:11:56;22.80;66.50
21992;DHT22;11160;51.576;0.194;2022-07-10T00:14:24;22.80;66.50
21992;DHT22;11160;51.576;0.194;2022-07-10T00:16:51;22.80;66.50
21992;DHT22;11160;51.576;0.194;2022-07-10T00:19:18;22.70;66.50
21992;DHT22;11160;51.576;0.194;2022-07-10T00:21:46;22.70;66.50
21992;DHT22;11160;51.576;0.194;2022-07-10T00:24:13;22.70;66.60
21992;DHT22;11160;51.576;0.194;2022-07-10T00:26:40;22.70;66.60
21992;DHT22;11160;51.576;0.194;2022-07-10T00:29:07;22.70;66.70
21992;DHT22;11160;51.576;0.194;2022-07-10T00:31:35;22.70;66.70
21992;DHT22;11160;51.576;0.194;2022-07-10T00:34:02;22.70;66.70
21992;DHT22;11160;51.576;0.194;2022-07-10T00:36:30;22.70;66.80
21992;DHT22;11160;51.576;0.194;2022-07-10T00:38:58;22.70;66.80
21992;DHT22;11160;51.576;0.194;2022-07-10T00:41:25;22.60;66.80
21992;DHT22;11160;51.576;0.194;2022-07-10T00:43:55;22.60;66.80
21992;DHT22;11160;51.576;0.194;2022-07-10T00:46:25;22.60;66.90
21992;DHT22;11160;51.576;0.194;2022-07-10T00:48:54;22.60;66.90
21992;DHT22;11160;51.576;0.194;2022-07-10T00:51:25;22.60;67.00
21992;DHT22;11160;51.576;0.194;2022-07-10T00:53:52;22.60;67.00
21992;DHT22;11160;51.576;0.194;2022-07-10T00:56:24;22.60;67.00
21992;DHT22;11160;51.576;0.194;2022-07-10T00:58:53;22.60;67.10
21992;DHT22;11160;51.576;0.194;2022-07-10T01:01:21;22.60;67.10
21992;DHT22;11160;51.576;0.194;2022-07-10T01:03:50;22.60;67.20
21992;DHT22;11160;51.576;0.194;2022-07-10T01:06:17;22.60;67.20
21992;DHT22;11160;51.576;0.194;2022-07-10T01:08:46;22.50;67.20
21992;DHT22;11160;51.576;0.194;2022-07-10T01:11:14;22.50;67.20
21992;DHT22;11160;51.576;0.194;2022-07-10T01:13:42;22.50;67.30
21992;DHT22;11160;51.576;0.194;2022-07-10T01:16:11;22.50;67.30
21992;DHT22;11160;51.576;0.194;2022-07-10T01:18:39;22.50;67.40
21992;DHT22;11160;51.576;0.194;2022-07-10T01:21:26;22.50;67.40
21992;DHT22;11160;51.576;0.194;2022-07-10T01:23:53;22.50;67.60
21992;DHT22;11160;51.576;0.194;2022-07-10T01:26:21;22.50;67.40
21992;DHT22;11160;51.576;0.194;2022-07-10T01:28:52;22.50;67.40
21992;DHT22;11160;51.576;0.194;2022-07-10T01:31:23;22.50;67.50
21992;DHT22;11160;51.576;0.194;2022-07-10T01:33:55;22.40;67.50
21992;DHT22;11160;51.576;0.194;2022-07-10T01:36:23;22.40;68.30
21992;DHT22;11160;51.576;0.194;2022-07-10T01:38:54;22.40;67.60
21992;DHT22;11160;51.576;0.194;2022-07-10T01:41:21;22.40;67.60
21992;DHT22;11160;51.576;0.194;2022-07-10T01:43:49;22.40;67.60
21992;DHT22;11160;51.576;0.194;2022-07-10T01:46:17;22.40;67.60
21992;DHT22;11160;51.576;0.194;2022-07-10T01:48:45;22.40;67.70
21992;DHT22;11160;51.576;0.194;2022-07-10T01:51:12;22.40;67.70
21992;DHT22;11160;51.576;0.194;2022-07-10T01:53:40;22.40;67.80
21992;DHT22;11160;51.576;0.194;2022-07-10T01:56:10;22.30;67.80
21992;DHT22;11160;51.576;0.194;2022-07-10T01:58:39;22.30;67.90
21992;DHT22;11160;51.576;0.194;2022-07-10T02:01:07;22.30;67.80
21992;DHT22;11160;51.576;0.194;2022-07-10T02:03:35;22.30;67.90
21992;DHT22;11160;51.576;0.194;2022-07-10T02:06:21;22.30;67.90
21992;DHT22;11160;51.576;0.194;2022-07-10T02:08:48;22.30;68.00
21992;DHT22;11160;51.576;0.194;2022-07-10T02:11:16;22.30;68.00
21992;DHT22;11160;51.576;0.194;2022-07-10T02:13:43;22.30;68.10
21992;DHT22;11160;51.576;0.194;2022-07-10T02:16:10;22.30;68.10
21992;DHT22;11160;51.576;0.194;2022-07-10T02:18:38;22.20;68.10
21992;DHT22;11160;51.576;0.194;2022-07-10T02:21:07;22.20;68.20
21992;DHT22;11160;51.576;0.194;2022-07-10T02:23:34;22.20;68.20
21992;DHT22;11160;51.576;0.194;2022-07-10T02:26:02;22.20;68.20
21992;DHT22;11160;51.576;0.194;2022-07-10T02:28:29;22.20;68.20
21992;DHT22;11160;51.576;0.194;2022-07-10T02:30:56;22.20;68.30
21992;DHT22;11160;51.576;0.194;2022-07-10T02:33:24;22.20;68.30
21992;DHT22;11160;51.576;0.194;2022-07-10T02:35:51;22.20;68.30
21992;DHT22;11160;51.576;0.194;2022-07-10T02:38:18;22.20;68.40
21992;DHT22;11160;51.576;0.194;2022-07-10T02:40:45;22.20;68.40
21992;DHT22;11160;51.576;0.194;2022-07-10T02:43:14;22.10;68.30
21992;DHT22;11160;51.576;0.194;2022-07-10T02:45:42;22.10;68.40
21992;DHT22;11160;51.576;0.194;2022-07-10T02:48:14;22.10;68.40
21992;DHT22;11160;51.576;0.194;2022-07-10T02:50:42;22.10;68.90
21992;DHT22;11160;51.576;0.194;2022-07-10T02:53:10;22.10;68.50
21992;DHT22;11160;51.576;0.194;2022-07-10T02:55:37;22.10;68.50
21992;DHT22;11160;51.576;0.194;2022-07-10T02:58:04;22.10;68.50
21992;DHT22;11160;51.576;0.194;2022-07-10T03:00:31;22.00;68.60
21992;DHT22;11160;51.576;0.194;2022-07-10T03:02:58;22.00;68.60
21992;DHT22;11160;51.576;0.194;2022-07-10T03:05:25;22.00;68.70
21992;DHT22;11160;51.576;0.194;2022-07-10T03:07:53;22.00;68.60
21992;DHT22;11160;51.576;0.194;2022-07-10T03:10:20;22.00;68.70
21992;DHT22;11160;51.576;0.194;2022-07-10T03:12:47;22.00;68.80
21992;DHT22;11160;51.576;0.194;2022-07-10T03:15:14;22.00;68.80
21992;DHT22;11160;51.576;0.194;2022-07-10T03:17:41;22.00;68.90
21992;DHT22;11160;51.576;0.194;2022-07-10T03:20:09;22.00;68.80
21992;DHT22;11160;51.576;0.194;2022-07-10T03:22:37;21.90;68.80
21992;DHT22;11160;51.576;0.194;2022-07-10T03:25:05;22.00;68.90
21992;DHT22;11160;51.576;0.194;2022-07-10T03:27:32;21.90;68.90
21992;DHT22;11160;51.576;0.194;2022-07-10T03:29:59;21.90;69.00
21992;DHT22;11160;51.576;0.194;2022-07-10T03:32:26;21.90;69.00
21992;DHT22;11160;51.576;0.194;2022-07-10T03:34:54;21.90;69.00
21992;DHT22;11160;51.576;0.194;2022-07-10T03:37:21;21.90;69.00
21992;DHT22;11160;51.576;0.194;2022-07-10T03:39:49;21.90;69.00
21992;DHT22;11160;51.576;0.194;2022-07-10T03:42:16;21.90;69.00
21992;DHT22;11160;51.576;0.194;2022-07-10T03:44:44;21.80;69.10
21992;DHT22;11160;51.576;0.194;2022-07-10T03:47:11;21.80;69.10
21992;DHT22;11160;51.576;0.194;2022-07-10T03:49:39;21.80;69.10
21992;DHT22;11160;51.576;0.194;2022-07-10T03:52:07;21.80;69.10
21992;DHT22;11160;51.576;0.194;2022-07-10T03:54:34;21.80;69.10
21992;DHT22;11160;51.576;0.194;2022-07-10T03:57:05;21.80;69.10
21992;DHT22;11160;51.576;0.194;2022-07-10T03:59:50;21.80;69.60
21992;DHT22;11160;51.576;0.194;2022-07-10T04:02:17;21.70;69.00
21992;DHT22;11160;51.576;0.194;2022-07-10T04:04:45;21.70;69.10
21992;DHT22;11160;51.576;0.194;2022-07-10T04:07:13;21.70;69.20
21992;DHT22;11160;51.576;0.194;2022-07-10T04:09:40;21.70;69.20
21992;DHT22;11160;51.576;0.194;2022-07-10T04:12:07;21.70;70.10
21992;DHT22;11160;51.576;0.194;2022-07-10T04:14:35;21.70;69.30
21992;DHT22;11160;51.576;0.194;2022-07-10T04:17:02;21.70;70.20
21992;DHT22;11160;51.576;0.194;2022-07-10T04:19:29;21.70;69.40
21992;DHT22;11160;51.576;0.194;2022-07-10T04:21:56;21.70;69.40
21992;DHT22;11160;51.576;0.194;2022-07-10T04:24:23;21.70;69.50
21992;DHT22;11160;51.576;0.194;2022-07-10T04:26:50;21.70;69.50
21992;DHT22;11160;51.576;0.194;2022-07-10T04:29:18;21.60;69.40
21992;DHT22;11160;51.576;0.194;2022-07-10T04:31:45;21.60;69.50
21992;DHT22;11160;51.576;0.194;2022-07-10T04:34:12;21.60;69.50
21992;DHT22;11160;51.576;0.194;2022-07-10T04:36:39;21.60;69.50
21992;DHT22;11160;51.576;0.194;2022-07-10T04:39:08;21.60;69.60
21992;DHT22;11160;51.576;0.194;2022-07-10T04:41:35;21.60;69.60
21992;DHT22;11160;51.576;0.194;2022-07-10T04:44:02;21.60;69.60
21992;DHT22;11160;51.576;0.194;2022-07-10T04:46:29;21.60;69.70
21992;DHT22;11160;51.576;0.194;2022-07-10T04:48:57;21.60;69.80
21992;DHT22;11160;51.576;0.194;2022-07-10T04:51:24;21.60;69.80
21992;DHT22;11160;51.576;0.194;2022-07-10T04:53:51;21.60;69.90
21992;DHT22;11160;51.576;0.194;2022-07-10T04:56:18;21.60;69.80
21992;DHT22;11160;51.576;0.194;2022-07-10T04:58:45;21.60;69.90
21992;DHT22;11160;51.576;0.194;2022-07-10T05:01:18;21.60;69.90
21992;DHT22;11160;51.576;0.194;2022-07-10T05:03:46;21.60;70.00
21992;DHT22;11160;51.576;0.194;2022-07-10T05:06:13;21.70;70.00
21992;DHT22;11160;51.576;0.194;2022-07-10T05:08:40;21.70;70.00
21992;DHT22;11160;51.576;0.194;2022-07-10T05:11:08;21.70;70.00
21992;DHT22;11160;51.576;0.194;2022-07-10T05:13:35;21.70;70.00
21992;DHT22;11160;51.576;0.194;2022-07-10T05:16:03;21.70;70.00
21992;DHT22;11160;51.576;0.194;2022-07-10T05:18:30;21.70;70.00
21992;DHT22;11160;51.576;0.194;2022-07-10T05:20:57;21.70;70.10
21992;DHT22;11160;51.576;0.194;2022-07-10T05:23:25;21.70;70.10
21992;DHT22;11160;51.576;0.194;2022-07-10T05:25:52;21.70;70.20
21992;DHT22;11160;51.576;0.194;2022-07-10T05:28:19;21.70;70.20
21992;DHT22;11160;51.576;0.194;2022-07-10T05:30:46;21.70;70.20
21992;DHT22;11160;51.576;0.194;2022-07-10T05:33:13;21.70;70.40
21992;DHT22;11160;51.576;0.194;2022-07-10T05:35:40;21.70;70.40
21992;DHT22;11160;51.576;0.194;2022-07-10T05:38:07;21.70;70.40
21992;DHT22;11160;51.576;0.194;2022-07-10T05:40:34;21.70;70.40
21992;DHT22;11160;51.576;0.194;2022-07-10T05:43:01;21.70;70.40
21992;DHT22;11160;51.576;0.194;2022-07-10T05:45:29;21.70;70.40
21992;DHT22;11160;51.576;0.194;2022-07-10T05:47:56;21.70;70.40
21992;DHT22;11160;51.576;0.194;2022-07-10T05:50:23;21.80;70.60
21992;DHT22;11160;51.576;0.194;2022-07-10T05:52:50;21.80;70.50
21992;DHT22;11160;51.576;0.194;2022-07-10T05:55:17;21.80;70.50
21992;DHT22;11160;51.576;0.194;2022-07-10T05:57:44;21.80;70.50
21992;DHT22;11160;51.576;0.194;2022-07-10T06:00:12;21.80;70.70
21992;DHT22;11160;51.576;0.194;2022-07-10T06:02:39;21.80;70.70
21992;DHT22;11160;51.576;0.194;2022-07-10T06:05:07;21.80;70.60
21992;DHT22;11160;51.576;0.194;2022-07-10T06:07:34;21.90;70.70
21992;DHT22;11160;51.576;0.194;2022-07-10T06:10:04;21.90;70.70
21992;DHT22;11160;51.576;0.194;2022-07-10T06:12:32;21.90;70.80
21992;DHT22;11160;51.576;0.194;2022-07-10T06:14:59;21.90;70.90
21992;DHT22;11160;51.576;0.194;2022-07-10T06:17:26;21.90;70.90
21992;DHT22;11160;51.576;0.194;2022-07-10T06:19:54;21.90;70.90
21992;DHT22;11160;51.576;0.194;2022-07-10T06:22:21;22.00;71.00
21992;DHT22;11160;51.576;0.194;2022-07-10T06:25:04;22.00;71.10
21992;DHT22;11160;51.576;0.194;2022-07-10T06:27:32;22.00;71.30
21992;DHT22;11160;51.576;0.194;2022-07-10T06:30:00;22.10;71.30
21992;DHT22;11160;51.576;0.194;2022-07-10T06:32:27;22.10;71.40
21992;DHT22;11160;51.576;0.194;2022-07-10T06:34:54;22.10;71.50
21992;DHT22;11160;51.576;0.194;2022-07-10T06:37:22;22.20;71.50
21992;DHT22;11160;51.576;0.194;2022-07-10T06:39:50;22.20;71.60
21992;DHT22;11160;51.576;0.194;2022-07-10T06:42:17;22.30;71.60
21992;DHT22;11160;51.576;0.194;2022-07-10T06:44:48;22.30;71.60
21992;DHT22;11160;51.576;0.194;2022-07-10T06:47:17;22.40;71.40
21992;DHT22;11160;51.576;0.194;2022-07-10T06:50:05;22.40;71.30
21992;DHT22;11160;51.576;0.194;2022-07-10T06:52:33;22.50;71.30
21992;DHT22;11160;51.576;0.194;2022-07-10T06:55:01;22.60;71.80
21992;DHT22;11160;51.576;0.194;2022-07-10T06:57:29;22.80;72.00
21992;DHT22;11160;51.576;0.194;2022-07-10T06:59:56;22.90;71.90
21992;DHT22;11160;51.576;0.194;2022-07-10T07:02:23;23.00;72.50
21992;DHT22;11160;51.576;0.194;2022-07-10T07:04:50;23.10;71.60
21992;DHT22;11160;51.576;0.194;2022-07-10T07:07:18;23.30;71.60
21992;DHT22;11160;51.576;0.194;2022-07-10T07:09:51;23.30;71.30
21992;DHT22;11160;51.576;0.194;2022-07-10T07:12:19;23.40;71.20
21992;DHT22;11160;51.576;0.194;2022-07-10T07:14:46;23.50;71.10
21992;DHT22;11160;51.576;0.194;2022-07-10T07:17:14;23.60;71.00
21992;DHT22;11160;51.576;0.194;2022-07-10T07:19:49;23.70;71.00
21992;DHT22;11160;51.576;0.194;2022-07-10T07:22:35;23.70;71.00
21992;DHT22;11160;51.576;0.194;2022-07-10T07:25:21;23.80;71.10
21992;DHT22;11160;51.576;0.194;2022-07-10T07:27:48;23.90;71.20
21992;DHT22;11160;51.576;0.194;2022-07-10T07:30:17;23.90;71.30
21992;DHT22;11160;51.576;0.194;2022-07-10T07:32:45;24.00;71.50
21992;DHT22;11160;51.576;0.194;2022-07-10T07:35:15;24.00;71.40
21992;DHT22;11160;51.576;0.194;2022-07-10T07:37:46;24.10;71.50
21992;DHT22;11160;51.576;0.194;2022-07-10T07:40:19;24.10;71.60
21992;DHT22;11160;51.576;0.194;2022-07-10T07:42:49;24.30;72.00
21992;DHT22;11160;51.576;0.194;2022-07-10T07:45:17;24.30;72.00
21992;DHT22;11160;51.576;0.194;2022-07-10T07:47:46;24.30;72.20
21992;DHT22;11160;51.576;0.194;2022-07-10T07:50:18;24.40;72.80
21992;DHT22;11160;51.576;0.194;2022-07-10T07:52:46;24.40;72.90
21992;DHT22;11160;51.576;0.194;2022-07-10T07:55:14;24.50;73.10
21992;DHT22;11160;51.576;0.194;2022-07-10T07:57:42;24.50;73.40
21992;DHT22;11160;51.576;0.194;2022-07-10T08:00:11;24.60;73.40
21992;DHT22;11160;51.576;0.194;2022-07-10T08:02:39;24.60;73.60
21992;DHT22;11160;51.576;0.194;2022-07-10T08:05:07;24.70;73.70
21992;DHT22;11160;51.576;0.194;2022-07-10T08:07:41;24.80;73.70
21992;DHT22;11160;51.576;0.194;2022-07-10T08:10:10;24.80;74.10
21992;DHT22;11160;51.576;0.194;2022-07-10T08:12:37;24.90;73.90
21992;DHT22;11160;51.576;0.194;2022-07-10T08:15:08;25.00;73.40
21992;DHT22;11160;51.576;0.194;2022-07-10T08:17:35;25.00;73.10
21992;DHT22;11160;51.576;0.194;2022-07-10T08:20:04;25.10;73.10
21992;DHT22;11160;51.576;0.194;2022-07-10T08:22:32;25.20;73.20
21992;DHT22;11160;51.576;0.194;2022-07-10T08:25:00;25.20;73.20
21992;DHT22;11160;51.576;0.194;2022-07-10T08:27:28;25.30;73.40
21992;DHT22;11160;51.576;0.194;2022-07-10T08:29:55;25.30;73.30
21992;DHT22;11160;51.576;0.194;2022-07-10T08:32:22;25.40;73.20
21992;DHT22;11160;51.576;0.194;2022-07-10T08:34:50;25.50;73.30
21992;DHT22;11160;51.576;0.194;2022-07-10T08:37:17;25.50;73.20
21992;DHT22;11160;51.576;0.194;2022-07-10T08:39:46;25.60;73.10
21992;DHT22;11160;51.576;0.194;2022-07-10T08:42:15;25.70;73.10
21992;DHT22;11160;51.576;0.194;2022-07-10T08:44:42;25.80;73.10
21992;DHT22;11160;51.576;0.194;2022-07-10T08:47:10;25.90;73.00
21992;DHT22;11160;51.576;0.194;2022-07-10T08:49:47;26.00;72.90
21992;DHT22;11160;51.576;0.194;2022-07-10T08:52:23;26.10;73.30
21992;DHT22;11160;51.576;0.194;2022-07-10T08:54:52;26.10;73.00
21992;DHT22;11160;51.576;0.194;2022-07-10T08:57:19;26.20;72.90
21992;DHT22;11160;51.576;0.194;2022-07-10T08:59:47;26.30;73.00
21992;DHT22;11160;51.576;0.194;2022-07-10T09:02:14;26.40;73.10
21992;DHT22;11160;51.576;0.194;2022-07-10T09:04:41;26.50;73.20
21992;DHT22;11160;51.576;0.194;2022-07-10T09:07:09;26.50;73.90
21992;DHT22;11160;51.576;0.194;2022-07-10T09:09:55;26.60;73.20
21992;DHT22;11160;51.576;0.194;2022-07-10T09:12:23;26.60;64.80
21992;DHT22;11160;51.576;0.194;2022-07-10T09:14:52;26.50;65.00
21992;DHT22;11160;51.576;0.194;2022-07-10T09:17:19;26.50;63.40
21992;DHT22;11160;51.576;0.194;2022-07-10T09:19:47;26.50;62.00
21992;DHT22;11160;51.576;0.194;2022-07-10T09:22:14;26.40;61.80
21992;DHT22;11160;51.576;0.194;2022-07-10T09:24:46;26.40;61.20
21992;DHT22;11160;51.576;0.194;2022-07-10T09:27:14;26.50;61.20
21992;DHT22;11160;51.576;0.194;2022-07-10T09:29:50;26.50;61.30
21992;DHT22;11160;51.576;0.194;2022-07-10T09:32:22;26.60;60.90
21992;DHT22;11160;51.576;0.194;2022-07-10T09:34:51;26.60;59.90
21992;DHT22;11160;51.576;0.194;2022-07-10T09:37:41;26.60;59.90
21992;DHT22;11160;51.576;0.194;2022-07-10T09:40:09;26.60;59.90
21992;DHT22;11160;51.576;0.194;2022-07-10T09:42:38;26.60;59.50
21992;DHT22;11160;51.576;0.194;2022-07-10T09:47:44;26.70;59.30
21992;DHT22;11160;51.576;0.194;2022-07-10T09:52:53;26.70;57.90
21992;DHT22;11160;51.576;0.194;2022-07-10T09:55:22;26.70;58.10
21992;DHT22;11160;51.576;0.194;2022-07-10T09:58:26;26.80;58.50
21992;DHT22;11160;51.576;0.194;2022-07-10T10:00:46;26.80;58.80
21992;DHT22;11160;51.576;0.194;2022-07-10T10:03:15;26.80;58.40
21992;DHT22;11160;51.576;0.194;2022-07-10T10:05:46;26.90;58.20
21992;DHT22;11160;51.576;0.194;2022-07-10T10:08:25;26.90;58.50
21992;DHT22;11160;51.576;0.194;2022-07-10T10:10:52;26.90;58.90
21992;DHT22;11160;51.576;0.194;2022-07-10T10:13:23;27.00;58.60
21992;DHT22;11160;51.576;0.194;2022-07-10T10:15:51;27.00;57.90
21992;DHT22;11160;51.576;0.194;2022-07-10T10:18:23;27.10;58.00
21992;DHT22;11160;51.576;0.194;2022-07-10T10:20:55;27.10;58.40
21992;DHT22;11160;51.576;0.194;2022-07-10T10:23:24;27.20;58.70
21992;DHT22;11160;51.576;0.194;2022-07-10T10:25:56;27.20;58.50
21992;DHT22;11160;51.576;0.194;2022-07-10T10:28:25;27.20;58.20
21992;DHT22;11160;51.576;0.194;2022-07-10T10:31:02;27.30;58.90
21992;DHT22;11160;51.576;0.194;2022-07-10T10:36:10;27.30;58.00
21992;DHT22;11160;51.576;0.194;2022-07-10T10:41:38;27.40;56.70
21992;DHT22;11160;51.576;0.194;2022-07-10T10:46:52;27.50;57.50
21992;DHT22;11160;51.576;0.194;2022-07-10T10:52:17;27.60;58.10
21992;DHT22;11160;51.576;0.194;2022-07-10T11:00:04;27.80;57.10
21992;DHT22;11160;51.576;0.194;2022-07-10T11:02:37;27.80;56.10
21992;DHT22;11160;51.576;0.194;2022-07-10T11:08:00;28.00;57.10
21992;DHT22;11160;51.576;0.194;2022-07-10T11:15:26;28.10;54.90
21992;DHT22;11160;51.576;0.194;2022-07-10T11:17:57;28.10;54.80
21992;DHT22;11160;51.576;0.194;2022-07-10T11:20:24;28.20;54.30
21992;DHT22;11160;51.576;0.194;2022-07-10T11:23:01;28.30;53.80
21992;DHT22;11160;51.576;0.194;2022-07-10T11:28:22;28.50;53.50
21992;DHT22;11160;51.576;0.194;2022-07-10T11:30:53;28.70;53.70
21992;DHT22;11160;51.576;0.194;2022-07-10T11:33:21;29.00;53.20
21992;DHT22;11160;51.576;0.194;2022-07-10T11:35:51;29.20;52.40
21992;DHT22;11160;51.576;0.194;2022-07-10T11:38:25;29.60;52.10
21992;DHT22;11160;51.576;0.194;2022-07-10T11:40:53;29.90;51.40
21992;DHT22;11160;51.576;0.194;2022-07-10T11:43:23;30.00;50.60
21992;DHT22;11160;51.576;0.194;2022-07-10T11:45:52;30.20;50.20
21992;DHT22;11160;51.576;0.194;2022-07-10T11:48:26;30.60;49.70
21992;DHT22;11160;51.576;0.194;2022-07-10T11:50:53;30.90;48.20
21992;DHT22;11160;51.576;0.194;2022-07-10T11:53:24;31.10;47.50
21992;DHT22;11160;51.576;0.194;2022-07-10T11:55:52;31.00;47.90
21992;DHT22;11160;51.576;0.194;2022-07-10T11:58:20;31.00;48.60
21992;DHT22;11160;51.576;0.194;2022-07-10T12:00:59;31.10;48.40
21992;DHT22;11160;51.576;0.194;2022-07-10T12:03:27;31.10;47.90
21992;DHT22;11160;51.576;0.194;2022-07-10T12:06:06;31.40;48.50
21992;DHT22;11160;51.576;0.194;2022-07-10T12:08:46;31.90;47.60
21992;DHT22;11160;51.576;0.194;2022-07-10T12:11:15;32.30;45.70
21992;DHT22;11160;51.576;0.194;2022-07-10T12:13:46;32.70;46.60
21992;DHT22;11160;51.576;0.194;2022-07-10T12:16:14;33.00;45.80
21992;DHT22;11160;51.576;0.194;2022-07-10T12:18:43;33.30;44.60
21992;DHT22;11160;51.576;0.194;2022-07-10T12:21:12;33.50;43.60
21992;DHT22;11160;51.576;0.194;2022-07-10T12:23:41;33.50;43.40
21992;DHT22;11160;51.576;0.194;2022-07-10T12:26:09;33.30;43.50
21992;DHT22;11160;51.576;0.194;2022-07-10T12:28:59;33.20;43.50
21992;DHT22;11160;51.576;0.194;2022-07-10T12:31:28;33.10;42.20
21992;DHT22;11160;51.576;0.194;2022-07-10T12:34:02;32.90;43.70
21992;DHT22;11160;51.576;0.194;2022-07-10T12:36:50;33.00;43.60
21992;DHT22;11160;51.576;0.194;2022-07-10T12:39:19;33.30;41.90
21992;DHT22;11160;51.576;0.194;2022-07-10T12:42:02;33.50;42.10
21992;DHT22;11160;51.576;0.194;2022-07-10T12:44:38;33.80;41.20
21992;DHT22;11160;51.576;0.194;2022-07-10T12:47:11;34.20;41.20
21992;DHT22;11160;51.576;0.194;2022-07-10T12:49:57;34.40;41.00
21992;DHT22;11160;51.576;0.194;2022-07-10T12:52:36;34.70;39.80
21992;DHT22;11160;51.576;0.194;2022-07-10T13:00:25;35.20;39.20
21992;DHT22;11160;51.576;0.194;2022-07-10T13:03:05;35.40;39.70
21992;DHT22;11160;51.576;0.194;2022-07-10T13:05:37;35.60;37.60
21992;DHT22;11160;51.576;0.194;2022-07-10T13:08:15;35.70;38.20
21992;DHT22;11160;51.576;0.194;2022-07-10T13:10:51;35.80;37.30
21992;DHT22;11160;51.576;0.194;2022-07-10T13:13:19;35.90;37.20
21992;DHT22;11160;51.576;0.194;2022-07-10T13:15:47;36.10;37.30
21992;DHT22;11160;51.576;0.194;2022-07-10T13:18:21;36.00;37.40
21992;DHT22;11160;51.576;0.194;2022-07-10T13:20:51;35.80;38.20
21992;DHT22;11160;51.576;0.194;2022-07-10T13:23:26;35.60;38.60
21992;DHT22;11160;51.576;0.194;2022-07-10T13:25:58;35.50;38.60
21992;DHT22;11160;51.576;0.194;2022-07-10T13:28:30;35.50;38.00
21992;DHT22;11160;51.576;0.194;2022-07-10T13:30:57;35.30;37.90
21992;DHT22;11160;51.576;0.194;2022-07-10T13:33:24;35.30;37.40
21992;DHT22;11160;51.576;0.194;2022-07-10T13:35:54;35.10;38.20
21992;DHT22;11160;51.576;0.194;2022-07-10T13:38:21;34.90;38.30
21992;DHT22;11160;51.576;0.194;2022-07-10T13:40:50;34.60;39.30
21992;DHT22;11160;51.576;0.194;2022-07-10T13:43:17;34.20;39.80
21992;DHT22;11160;51.576;0.194;2022-07-10T13:45:44;34.20;39.20
21992;DHT22;11160;51.576;0.194;2022-07-10T13:48:15;34.00;39.50
21992;DHT22;11160;51.576;0.194;2022-07-10T13:50:45;33.90;39.60
21992;DHT22;11160;51.576;0.194;2022-07-10T13:53:16;33.60;40.20
21992;DHT22;11160;51.576;0.194;2022-07-10T13:55:44;33.40;41.10
21992;DHT22;11160;51.576;0.194;2022-07-10T13:58:12;33.40;40.60
21992;DHT22;11160;51.576;0.194;2022-07-10T14:00:40;33.20;41.00
21992;DHT22;11160;51.576;0.194;2022-07-10T14:03:07;33.00;41.20
21992;DHT22;11160;51.576;0.194;2022-07-10T14:05:36;32.80;41.70
21992;DHT22;11160;51.576;0.194;2022-07-10T14:08:03;32.70;42.00
21992;DHT22;11160;51.576;0.194;2022-07-10T14:10:31;32.50;41.80
21992;DHT22;11160;51.576;0.194;2022-07-10T14:12:58;32.50;41.50
21992;DHT22;11160;51.576;0.194;2022-07-10T14:15:26;32.30;41.30
21992;DHT22;11160;51.576;0.194;2022-07-10T14:17:53;32.10;41.50
21992;DHT22;11160;51.576;0.194;2022-07-10T14:20:22;32.10;41.70
21992;DHT22;11160;51.576;0.194;2022-07-10T14:22:49;31.90;42.00
21992;DHT22;11160;51.576;0.194;2022-07-10T14:25:16;31.80;42.70
21992;DHT22;11160;51.576;0.194;2022-07-10T14:27:44;31.60;42.40
21992;DHT22;11160;51.576;0.194;2022-07-10T14:30:13;31.50;42.20
21992;DHT22;11160;51.576;0.194;2022-07-10T14:32:40;31.60;43.00
21992;DHT22;11160;51.576;0.194;2022-07-10T14:35:07;31.50;42.90
21992;DHT22;11160;51.576;0.194;2022-07-10T14:37:35;31.50;42.90
21992;DHT22;11160;51.576;0.194;2022-07-10T14:40:03;31.40;42.70
21992;DHT22;11160;51.576;0.194;2022-07-10T14:42:30;31.30;42.90
21992;DHT22;11160;51.576;0.194;2022-07-10T14:44:57;31.20;43.60
21992;DHT22;11160;51.576;0.194;2022-07-10T14:47:25;31.00;44.10
21992;DHT22;11160;51.576;0.194;2022-07-10T14:49:55;30.90;44.30
21992;DHT22;11160;51.576;0.194;2022-07-10T14:52:22;30.80;44.30
21992;DHT22;11160;51.576;0.194;2022-07-10T14:54:52;30.80;44.30
21992;DHT22;11160;51.576;0.194;2022-07-10T14:57:19;30.60;44.40
21992;DHT22;11160;51.576;0.194;2022-07-10T14:59:46;30.60;44.50
21992;DHT22;11160;51.576;0.194;2022-07-10T15:02:13;30.60;44.00
21992;DHT22;11160;51.576;0.194;2022-07-10T15:04:41;30.50;42.50
21992;DHT22;11160;51.576;0.194;2022-07-10T15:07:08;30.50;42.20
21992;DHT22;11160;51.576;0.194;2022-07-10T15:09:35;30.50;42.60
21992;DHT22;11160;51.576;0.194;2022-07-10T15:12:02;30.50;42.80
21992;DHT22;11160;51.576;0.194;2022-07-10T15:14:29;30.40;43.80
21992;DHT22;11160;51.576;0.194;2022-07-10T15:16:59;30.40;43.60
21992;DHT22;11160;51.576;0.194;2022-07-10T15:19:27;30.30;42.70
21992;DHT22;11160;51.576;0.194;2022-07-10T15:21:54;30.20;44.00
21992;DHT22;11160;51.576;0.194;2022-07-10T15:24:27;30.10;44.90
21992;DHT22;11160;51.576;0.194;2022-07-10T15:26:56;30.10;44.70
21992;DHT22;11160;51.576;0.194;2022-07-10T15:29:24;30.00;44.60
21992;DHT22;11160;51.576;0.194;2022-07-10T15:31:52;30.10;44.50
21992;DHT22;11160;51.576;0.194;2022-07-10T15:34:25;30.10;44.40
21992;DHT22;11160;51.576;0.194;2022-07-10T15:36:52;30.20;44.80
21992;DHT22;11160;51.576;0.194;2022-07-10T15:39:19;30.20;44.50
21992;DHT22;11160;51.576;0.194;2022-07-10T15:41:47;30.20;45.10
21992;DHT22;11160;51.576;0.194;2022-07-10T15:44:14;30.10;45.70
21992;DHT22;11160;51.576;0.194;2022-07-10T15:46:41;30.00;45.30
21992;DHT22;11160;51.576;0.194;2022-07-10T15:49:09;30.00;44.80
21992;DHT22;11160;51.576;0.194;2022-07-10T15:51:38;29.90;45.30
21992;DHT22;11160;51.576;0.194;2022-07-10T15:54:05;29.80;46.00
21992;DHT22;11160;51.576;0.194;2022-07-10T15:56:32;29.70;46.00
21992;DHT22;11160;51.576;0.194;2022-07-10T15:59:06;29.70;45.90
21992;DHT22;11160;51.576;0.194;2022-07-10T16:01:33;29.70;46.10
21992;DHT22;11160;51.576;0.194;2022-07-10T16:04:00;29.70;46.30
21992;DHT22;11160;51.576;0.194;2022-07-10T16:06:28;29.70;45.70
21992;DHT22;11160;51.576;0.194;2022-07-10T16:08:55;29.80;45.70
21992;DHT22;11160;51.576;0.194;2022-07-10T16:11:22;29.80;45.70
21992;DHT22;11160;51.576;0.194;2022-07-10T16:13:49;29.80;45.60
21992;DHT22;11160;51.576;0.194;2022-07-10T16:16:17;29.80;45.60
21992;DHT22;11160;51.576;0.194;2022-07-10T16:18:44;29.80;45.00
21992;DHT22;11160;51.576;0.194;2022-07-10T16:21:11;29.80;45.10